createdAt,value
2019-01-12T12:43:31.947Z,98568.56
2019-01-12T12:46:00.687Z,98564.19
2019-01-12T12:48:29.508Z,98560.47
2019-01-12T12:50:58.399Z,98576.43
2019-01-12T12:53:27.187Z,98564.92
2019-01-12T12:55:55.932Z,98567.05
2019-01-12T12:58:24.966Z,98564.41
2019-01-12T13:05:43.038Z,98554.47
2019-01-12T13:08:11.827Z,98547.46
2019-01-12T13:10:40.613Z,98543.90
2019-01-12T13:13:10.119Z,98555.48
2019-01-12T13:15:38.852Z,98561.92
2019-01-12T13:18:07.800Z,98562.11
2019-01-12T13:20:36.693Z,98555.26
2019-01-12T13:23:05.526Z,98556.34
2019-01-12T13:25:34.365Z,98559.88
2019-01-12T13:28:03.261Z,98555.01
2019-01-12T13:30:32.042Z,98560.70
2019-01-12T13:33:00.771Z,98563.56
2019-01-12T13:35:29.722Z,98553.66
2019-01-12T13:37:58.512Z,98558.15
2019-01-12T13:40:27.405Z,98553.94
2019-01-12T13:42:56.289Z,98555.38
2019-01-12T13:45:25.532Z,98537.60
2019-01-12T13:47:55.214Z,98537.60
2019-01-12T13:50:25.377Z,98543.45
2019-01-12T13:52:54.207Z,98552.57
2019-01-12T13:55:22.998Z,98547.66
2019-01-12T13:57:52.091Z,98548.41
2019-01-12T14:00:26.509Z,98544.38
2019-01-12T14:02:55.244Z,98552.42
2019-01-12T14:05:24.819Z,98552.42
2019-01-12T14:07:56.429Z,98547.45
2019-01-12T14:10:24.732Z,98547.45
2019-01-12T14:12:53.727Z,98559.50
2019-01-12T14:15:22.675Z,98559.50
2019-01-12T14:17:51.711Z,98544.47
2019-01-12T14:20:29.206Z,98548.31
2019-01-12T14:22:57.994Z,98540.47
2019-01-12T14:25:27.212Z,98540.47
2019-01-12T14:27:56.291Z,98541.21
2019-01-12T14:30:25.281Z,98536.30
2019-01-12T14:32:54.010Z,98536.30
2019-01-12T14:35:23.060Z,98534.15
2019-01-12T14:37:51.951Z,98534.15
2019-01-12T14:40:21.485Z,98531.98
2019-01-12T14:42:50.464Z,98531.98
2019-01-12T14:45:27.941Z,98540.55
2019-01-12T14:47:56.835Z,98540.55
2019-01-12T14:50:25.719Z,98543.53
2019-01-12T14:52:54.453Z,98546.64
2019-01-12T14:55:24.105Z,98540.58
2019-01-12T14:57:53.028Z,98540.58
2019-01-12T15:00:26.312Z,98540.56
2019-01-12T15:02:55.221Z,98554.59
2019-01-12T15:05:25.905Z,98556.34
2019-01-12T15:07:54.718Z,98563.14
2019-01-12T15:10:23.707Z,98563.23
2019-01-12T15:12:52.838Z,98569.05
2019-01-12T15:15:23.329Z,98569.05
2019-01-12T15:17:52.329Z,98558.70
2019-01-12T15:20:23.670Z,98569.87
2019-01-12T15:22:52.565Z,98569.05
2019-01-12T15:25:21.655Z,98570.33
2019-01-12T15:27:50.546Z,98570.33
2019-01-12T15:30:27.435Z,98572.67
2019-01-12T15:32:56.520Z,98571.55
2019-01-12T15:35:28.174Z,98571.55
2019-01-12T15:37:57.063Z,98572.92
2019-01-12T15:40:25.959Z,98573.88
2019-01-12T15:42:54.688Z,98573.88
2019-01-12T15:45:25.584Z,98575.37
2019-01-12T15:47:54.336Z,98566.14
2019-01-12T15:50:24.959Z,98569.41
2019-01-12T15:52:54.196Z,98588.63
2019-01-12T15:55:23.292Z,98588.63
2019-01-12T15:57:52.326Z,98583.59
2019-01-12T16:00:24.263Z,98585.89
2019-01-12T16:02:53.241Z,98585.89
2019-01-12T16:05:22.336Z,98583.83
2019-01-12T16:07:51.535Z,98573.63
2019-01-12T16:10:20.536Z,98573.63
2019-01-12T16:12:49.263Z,98574.29
2019-01-12T16:15:20.651Z,98574.29
2019-01-12T16:17:49.586Z,98569.39
2019-01-12T16:20:21.211Z,98588.08
2019-01-12T16:22:50.205Z,98588.08
2019-01-12T16:25:18.999Z,98593.14
2019-01-12T16:27:47.739Z,98598.11
2019-01-12T16:30:19.229Z,98593.38
2019-01-12T16:32:47.963Z,98596.81
2019-01-12T16:35:17.215Z,98602.36
2019-01-12T16:37:46.113Z,98601.09
2019-01-12T16:40:20.528Z,98599.17
2019-01-12T16:42:49.315Z,98597.69
2019-01-12T16:45:18.399Z,98608.24
2019-01-12T16:47:47.202Z,98608.24
2019-01-12T16:50:15.987Z,98610.58
2019-01-12T16:52:46.004Z,98606.52
2019-01-12T16:55:16.943Z,98608.00
2019-01-12T16:57:45.729Z,98607.75
2019-01-12T17:00:18.083Z,98608.42
2019-01-12T17:02:46.889Z,98612.37
2019-01-12T17:05:15.677Z,98612.05
2019-01-12T17:07:44.987Z,98612.05
2019-01-12T17:10:16.118Z,98608.06
2019-01-12T17:12:45.018Z,98608.06
2019-01-12T17:15:15.745Z,98604.20
2019-01-12T17:17:45.517Z,98605.78
2019-01-12T17:20:17.059Z,98598.81
2019-01-12T17:22:46.508Z,98603.45
2019-01-12T17:25:15.302Z,98592.98
2019-01-12T17:27:44.088Z,98592.66
2019-01-12T17:30:18.278Z,98582.47
2019-01-12T17:32:47.094Z,98585.70
2019-01-12T17:35:16.288Z,98589.64
2019-01-12T17:37:45.662Z,98594.33
2019-01-12T17:40:15.810Z,98596.89
2019-01-12T17:42:44.600Z,98593.33
2019-01-12T17:45:16.047Z,98591.63
2019-01-12T17:47:44.781Z,98596.20
2019-01-12T17:50:16.218Z,98603.66
2019-01-12T17:52:45.387Z,98599.80
2019-01-12T17:55:16.490Z,98596.12
2019-01-12T17:57:45.431Z,98600.03
2019-01-12T18:00:26.825Z,98602.19
2019-01-12T18:02:55.567Z,98602.37
2019-01-12T18:05:24.309Z,98609.77
2019-01-12T18:07:53.104Z,98605.23
2019-01-12T18:10:22.053Z,98586.42
2019-01-12T18:12:50.786Z,98589.66
2019-01-12T18:15:20.040Z,98601.43
2019-01-12T18:17:48.830Z,98594.24
2019-01-12T18:20:18.572Z,98604.70
2019-01-12T18:22:47.426Z,98604.70
2019-01-12T18:25:17.013Z,98596.75
2019-01-12T18:27:46.335Z,98605.33
2019-01-12T18:30:22.948Z,98607.92
2019-01-12T18:32:51.793Z,98593.06
2019-01-12T18:35:20.538Z,98592.03
2019-01-12T18:37:49.332Z,98602.53
2019-01-12T18:40:19.677Z,98605.27
2019-01-12T18:42:48.480Z,98595.33
2019-01-12T18:45:19.262Z,98590.94
2019-01-12T18:47:48.000Z,98578.14
2019-01-12T18:50:22.426Z,98581.31
2019-01-12T18:52:51.724Z,98572.86
2019-01-12T18:55:20.568Z,98571.69
2019-01-12T18:57:49.336Z,98569.03
2019-01-12T19:00:20.342Z,98574.02
2019-01-12T19:02:50.462Z,98579.73
2019-01-12T19:05:19.807Z,98578.69
2019-01-12T19:07:48.892Z,98581.41
2019-01-12T19:10:18.359Z,98586.50
2019-01-12T19:12:47.154Z,98595.89
2019-01-12T19:15:21.875Z,98592.41
2019-01-12T19:17:50.772Z,98599.44
2019-01-12T19:20:19.556Z,98598.16
2019-01-12T19:22:48.496Z,98597.98
2019-01-12T19:25:17.538Z,98596.23
2019-01-12T19:27:46.327Z,98596.23
2019-01-12T19:30:17.573Z,98597.84
2019-01-12T19:32:46.360Z,98601.92
2019-01-12T19:35:15.099Z,98613.70
2019-01-12T19:37:43.939Z,98610.86
2019-01-12T19:40:14.979Z,98616.09
2019-01-12T19:42:43.767Z,98607.74
2019-01-12T19:45:14.573Z,98602.98
2019-01-12T19:47:43.499Z,98602.02
2019-01-12T19:50:18.061Z,98604.31
2019-01-12T19:52:46.905Z,98610.77
2019-01-12T19:55:15.695Z,98625.62
2019-01-12T19:57:45.482Z,98623.30
2019-01-12T20:00:19.741Z,98618.16
2019-01-12T20:02:48.560Z,98613.08
2019-01-12T20:05:17.329Z,98619.38
2019-01-12T20:07:46.192Z,98617.45
2019-01-12T20:10:16.801Z,98623.55
2019-01-12T20:12:45.548Z,98638.14
2019-01-12T20:15:20.438Z,98642.19
2019-01-12T20:17:49.181Z,98628.55
2019-01-12T20:20:18.523Z,98625.75
2019-01-12T20:22:47.830Z,98614.04
2019-01-12T20:25:22.099Z,98623.55
2019-01-12T20:27:50.932Z,98615.92
2019-01-12T20:30:25.553Z,98627.19
2019-01-12T20:33:06.184Z,98621.72
2019-01-12T20:35:40.976Z,98615.41
2019-01-12T20:38:18.676Z,98612.00
2019-01-12T20:41:11.603Z,98603.45
2019-01-12T20:43:52.264Z,98598.44
2019-01-12T20:46:29.655Z,98596.98
2019-01-12T20:49:07.247Z,98600.73
2019-01-12T20:52:00.104Z,98594.43
2019-01-12T20:54:40.537Z,98590.25
2019-01-12T20:57:21.143Z,98588.22
2019-01-12T20:59:52.795Z,98591.08
2019-01-12T21:02:24.558Z,98587.17
2019-01-12T21:05:05.154Z,98586.09
2019-01-12T21:07:37.188Z,98589.03
2019-01-12T21:10:20.500Z,98590.92
2019-01-12T21:12:52.258Z,98586.32
2019-01-12T21:15:23.912Z,98591.64
2019-01-12T21:17:52.702Z,98586.98
2019-01-12T21:20:21.586Z,98583.97
2019-01-12T21:22:50.379Z,98592.86
2019-01-12T21:25:19.110Z,98599.22
2019-01-12T21:27:48.160Z,98594.09
2019-01-12T21:30:18.182Z,98591.73
2019-01-12T21:32:46.974Z,98594.46
2019-01-12T21:35:15.859Z,98591.19
2019-01-12T21:37:44.656Z,98594.02
2019-01-12T21:40:13.494Z,98594.62
2019-01-12T21:42:42.460Z,98584.92
2019-01-12T21:45:14.034Z,98588.83
2019-01-12T21:47:42.865Z,98587.90
2019-01-12T21:50:16.446Z,98589.27
2019-01-12T21:52:45.258Z,98591.19
2019-01-12T21:55:14.044Z,98585.71
2019-01-12T21:57:43.549Z,98584.33
2019-01-12T22:00:15.593Z,98588.84
2019-01-12T22:02:44.504Z,98585.55
2019-01-12T22:05:14.989Z,98589.69
2019-01-12T22:07:43.899Z,98598.63
2019-01-12T22:10:19.207Z,98600.38
2019-01-12T22:12:47.109Z,98593.06
2019-01-12T22:15:16.943Z,98586.00
2019-01-12T22:17:46.040Z,98590.45
2019-01-12T22:20:18.102Z,98584.86
2019-01-12T22:22:46.888Z,98583.80
2019-01-12T22:25:15.883Z,98576.77
2019-01-12T22:27:44.774Z,98586.16
2019-01-12T22:30:20.000Z,98586.69
2019-01-12T22:32:48.800Z,98583.64
2019-01-12T22:35:17.688Z,98586.69
2019-01-12T22:37:46.476Z,98578.36
2019-01-12T22:40:20.187Z,98582.71
2019-01-12T22:42:49.176Z,98583.03
2019-01-12T22:45:18.166Z,98581.57
2019-01-12T22:47:46.953Z,98580.67
2019-01-12T22:50:16.776Z,98588.15
2019-01-12T22:52:45.806Z,98585.63
2019-01-12T22:55:14.957Z,98585.09
2019-01-12T22:57:43.849Z,98575.22
2019-01-12T23:00:33.420Z,98575.59
2019-01-12T23:03:02.252Z,98572.70
2019-01-12T23:05:31.001Z,98574.28
2019-01-12T23:07:59.889Z,98577.98
2019-01-12T23:10:28.780Z,98570.02
2019-01-12T23:12:57.603Z,98566.57
2019-01-12T23:15:26.331Z,98569.34
2019-01-12T23:17:55.247Z,98574.37
2019-01-12T23:20:23.981Z,98575.91
2019-01-12T23:22:52.824Z,98570.63
2019-01-12T23:25:21.720Z,98566.20
2019-01-12T23:27:50.499Z,98568.80
2019-01-12T23:30:19.246Z,98568.47
2019-01-12T23:32:48.074Z,98576.95
2019-01-12T23:35:16.908Z,98573.52
2019-01-12T23:37:45.956Z,98570.80
2019-01-12T23:40:15.362Z,98569.02
2019-01-12T23:42:45.790Z,98578.59
2019-01-12T23:45:15.527Z,98576.90
2019-01-12T23:47:44.390Z,98578.02
2019-01-12T23:50:14.402Z,98579.10
2019-01-12T23:52:43.248Z,98570.98
2019-01-12T23:55:12.288Z,98576.72
2019-01-12T23:57:41.077Z,98582.84
